MSC Luisa — H9XU — position and weather

sailwx.info

Track history (hours):
 
Tides and Currents Weather Stations Pressure Air Temp Water Temp Dewpoint Dewpoint Depression Visibility Wind Speed Wind Dir Waves Ship Positions

MSC Luisa

Last reported at 2017-May-23 04:32 UTC. Time now 2017-May-29 13:19 UTC.
Position S 24°59' W 046°44'.

Length 300 m; draft 9 m.

Type: Ship. MMSI: 355308000.

Date/timePositionNaut miles runAvg speedWind from/ knotsBaromVisibWave heightAir tempDewpointWater temp
2017-May-23 04:32S 24°59' W 046°44'114.9
2017-May-23 04:30S 24°58' W 046°44'715.1
2017-May-23 04:00S 24°52' W 046°40'715.3
2017-May-23 03:30S 24°45' W 046°38'815.0
2017-May-23 03:00S 24°37' W 046°35'714.9
2017-May-23 02:30S 24°30' W 046°32'714.8
2017-May-23 02:00S 24°23' W 046°30'815.1
2017-May-23 01:30S 24°16' W 046°27'816.8
2017-May-23 01:00S 24°08' W 046°24'815.7
2017-May-23 00:30S 24°01' W 046°20'4 7.3
2017-May-23 00:00S 23°59' W 046°17'4 7.6
2017-May-22 23:26S 23°55' W 046°20'0 0.7
2017-May-22 22:50S 23°55' W 046°21'0 0.0
2017-May-22 22:08S 23°55' W 046°21'0 0.1
2017-May-22 21:59S 23°55' W 046°21'0 0.0
2017-May-22 21:29S 23°55' W 046°21'0 0.0
2017-May-22 20:50S 23°55' W 046°21'0 0.0
2017-May-22 20:26S 23°55' W 046°21'0 0.0
2017-May-22 19:56S 23°55' W 046°21'0 0.0
2017-May-22 19:26S 23°55' W 046°21'0 0.0
2017-May-22 18:59S 23°55' W 046°21'0 0.0
2017-May-22 18:23S 23°55' W 046°21'0 0.0
2017-May-22 17:59S 23°55' W 046°21'0 0.0
2017-May-22 17:26S 23°55' W 046°21'0 0.0
2017-May-22 15:26S 23°55' W 046°21'0 0.0
2017-May-22 14:59S 23°55' W 046°21'0 0.0
2017-May-22 13:32S 23°55' W 046°21'0 0.1
2017-May-22 13:23S 23°55' W 046°21'0 0.0
2017-May-22 12:56S 23°55' W 046°21'0 0.0
2017-May-22 12:05S 23°55' W 046°21'0 0.0
2017-May-22 11:53S 23°55' W 046°21'0 0.0
2017-May-22 11:14S 23°55' W 046°21'0 0.0
2017-May-22 10:53S 23°55' W 046°21'0 0.0
2017-May-22 10:26S 23°55' W 046°21'0 0.0
2017-May-22 09:59S 23°55' W 046°21'0 0.0
2017-May-22 09:29S 23°55' W 046°21'0 0.0
2017-May-22 08:53S 23°55' W 046°21'0 0.0
2017-May-22 08:20S 23°55' W 046°21'0 0.0
2017-May-22 07:56S 23°55' W 046°21'0 0.0
2017-May-22 07:26S 23°55' W 046°21'0 0.0
2017-May-22 06:50S 23°55' W 046°21'0 0.0
2017-May-22 06:26S 23°55' W 046°21'0 0.0
2017-May-22 05:56S 23°55' W 046°21'0 0.0
2017-May-22 05:26S 23°55' W 046°21'0 0.0
2017-May-22 04:50S 23°55' W 046°21'0 0.0
2017-May-22 04:26S 23°55' W 046°21'0 0.0
2017-May-22 03:53S 23°55' W 046°21'0 0.0
2017-May-22 03:20S 23°55' W 046°21'0 0.0
2017-May-22 00:32S 23°55' W 046°21'0 0.2
2017-May-22 00:20S 23°55' W 046°21'0 0.0
2017-May-21 23:44S 23°55' W 046°21'0 0.0
2017-May-21 22:32S 23°55' W 046°21'0 0.1
2017-May-21 22:26S 23°55' W 046°21'0 0.0
2017-May-21 21:56S 23°55' W 046°21'0 0.0
2017-May-21 21:29S 23°55' W 046°21'0 0.3
2017-May-21 20:59S 23°55' W 046°21'3 7.0
2017-May-21 20:30S 23°58' W 046°18'3 5.8
2017-May-21 20:00S 23°60' W 046°20'5 9.5
2017-May-21 19:30S 24°04' W 046°22'5 9.5
2017-May-21 19:00S 24°09' W 046°24'510.1
2017-May-21 18:30S 24°14' W 046°24'4 8.3
2017-May-21 18:00S 24°11' W 046°21'4 8.2
2017-May-21 17:30S 24°15' W 046°20'612.9
2017-May-21 17:01S 24°20' W 046°16'713.0
2017-May-21 16:30S 24°24' W 046°10'713.4
2017-May-21 16:00S 24°24' W 046°03'714.1
2017-May-21 15:30S 24°23' W 045°55'714.1
2017-May-21 15:00S 24°22' W 045°48'24316.3
2017-May-21 00:03S 22°59' W 041°38'615.9
2017-May-20 23:39S 22°55' W 041°33'316.1
2017-May-20 23:29S 22°53' W 041°30'  
Track history (hours):
 
Tides and Currents Weather Stations Pressure Air Temp Water Temp Dewpoint Dewpoint Depression Visibility Wind Speed Wind Dir Waves Ship Positions

MSC Luisa

Last reported at 2017-May-23 04:32 UTC. Time now 2017-May-29 13:19 UTC.
Position S 24°59' W 046°44'.

Length 300 m; draft 9 m.

Type: Ship. MMSI: 355308000.

Date/timePositionNaut miles runAvg speedWind from/ knotsBaromVisibWave heightAir tempDewpointWater temp
2017-May-23 04:32S 24°59' W 046°44'114.9
2017-May-23 04:30S 24°58' W 046°44'715.1
2017-May-23 04:00S 24°52' W 046°40'715.3
2017-May-23 03:30S 24°45' W 046°38'815.0
2017-May-23 03:00S 24°37' W 046°35'714.9
2017-May-23 02:30S 24°30' W 046°32'714.8
2017-May-23 02:00S 24°23' W 046°30'815.1
2017-May-23 01:30S 24°16' W 046°27'816.8
2017-May-23 01:00S 24°08' W 046°24'815.7
2017-May-23 00:30S 24°01' W 046°20'4 7.3
2017-May-23 00:00S 23°59' W 046°17'4 7.6
2017-May-22 23:26S 23°55' W 046°20'0 0.7
2017-May-22 22:50S 23°55' W 046°21'0 0.0
2017-May-22 22:08S 23°55' W 046°21'0 0.1
2017-May-22 21:59S 23°55' W 046°21'0 0.0
2017-May-22 21:29S 23°55' W 046°21'0 0.0
2017-May-22 20:50S 23°55' W 046°21'0 0.0
2017-May-22 20:26S 23°55' W 046°21'0 0.0
2017-May-22 19:56S 23°55' W 046°21'0 0.0
2017-May-22 19:26S 23°55' W 046°21'0 0.0
2017-May-22 18:59S 23°55' W 046°21'0 0.0
2017-May-22 18:23S 23°55' W 046°21'0 0.0
2017-May-22 17:59S 23°55' W 046°21'0 0.0
2017-May-22 17:26S 23°55' W 046°21'0 0.0
2017-May-22 15:26S 23°55' W 046°21'0 0.0
2017-May-22 14:59S 23°55' W 046°21'0 0.0
2017-May-22 13:32S 23°55' W 046°21'0 0.1
2017-May-22 13:23S 23°55' W 046°21'0 0.0
2017-May-22 12:56S 23°55' W 046°21'0 0.0
2017-May-22 12:05S 23°55' W 046°21'0 0.0
2017-May-22 11:53S 23°55' W 046°21'0 0.0
2017-May-22 11:14S 23°55' W 046°21'0 0.0
2017-May-22 10:53S 23°55' W 046°21'0 0.0
2017-May-22 10:26S 23°55' W 046°21'0 0.0
2017-May-22 09:59S 23°55' W 046°21'0 0.0
2017-May-22 09:29S 23°55' W 046°21'0 0.0
2017-May-22 08:53S 23°55' W 046°21'0 0.0
2017-May-22 08:20S 23°55' W 046°21'0 0.0
2017-May-22 07:56S 23°55' W 046°21'0 0.0
2017-May-22 07:26S 23°55' W 046°21'0 0.0
2017-May-22 06:50S 23°55' W 046°21'0 0.0
2017-May-22 06:26S 23°55' W 046°21'0 0.0
2017-May-22 05:56S 23°55' W 046°21'0 0.0
2017-May-22 05:26S 23°55' W 046°21'0 0.0
2017-May-22 04:50S 23°55' W 046°21'0 0.0
2017-May-22 04:26S 23°55' W 046°21'0 0.0
2017-May-22 03:53S 23°55' W 046°21'0 0.0
2017-May-22 03:20S 23°55' W 046°21'0 0.0
2017-May-22 00:32S 23°55' W 046°21'0 0.2
2017-May-22 00:20S 23°55' W 046°21'0 0.0
2017-May-21 23:44S 23°55' W 046°21'0 0.0
2017-May-21 22:32S 23°55' W 046°21'0 0.1
2017-May-21 22:26S 23°55' W 046°21'0 0.0
2017-May-21 21:56S 23°55' W 046°21'0 0.0
2017-May-21 21:29S 23°55' W 046°21'0 0.3
2017-May-21 20:59S 23°55' W 046°21'3 7.0
2017-May-21 20:30S 23°58' W 046°18'3 5.8
2017-May-21 20:00S 23°60' W 046°20'5 9.5
2017-May-21 19:30S 24°04' W 046°22'5 9.5
2017-May-21 19:00S 24°09' W 046°24'510.1
2017-May-21 18:30S 24°14' W 046°24'4 8.3
2017-May-21 18:00S 24°11' W 046°21'4 8.2
2017-May-21 17:30S 24°15' W 046°20'612.9
2017-May-21 17:01S 24°20' W 046°16'713.0
2017-May-21 16:30S 24°24' W 046°10'713.4
2017-May-21 16:00S 24°24' W 046°03'714.1
2017-May-21 15:30S 24°23' W 045°55'714.1
2017-May-21 15:00S 24°22' W 045°48'24316.3
2017-May-21 00:03S 22°59' W 041°38'615.9
2017-May-20 23:39S 22°55' W 041°33'316.1
2017-May-20 23:29S 22°53' W 041°30'  

Dump ship's entire track history